createdAt,value
2023-04-19T00:01:17.524Z,12.50
2023-04-19T00:03:44.921Z,12.50
2023-04-19T00:06:15.179Z,12.50
2023-04-19T00:08:42.454Z,12.50
2023-04-19T00:11:10.193Z,12.40
2023-04-19T00:13:36.784Z,12.40
2023-04-19T00:16:03.627Z,12.40
2023-04-19T00:18:30.211Z,12.40
2023-04-19T00:20:56.911Z,12.40
2023-04-19T00:23:23.759Z,12.30
2023-04-19T00:25:50.392Z,12.30
2023-04-19T00:28:17.169Z,12.30
2023-04-19T00:30:43.841Z,12.30
2023-04-19T00:33:13.088Z,12.30
2023-04-19T00:35:42.966Z,12.20
2023-04-19T00:38:09.684Z,12.20
2023-04-19T00:40:37.900Z,12.30
2023-04-19T00:43:04.600Z,12.20
2023-04-19T00:45:33.300Z,12.20
2023-04-19T00:48:01.533Z,12.20
2023-04-19T00:50:28.972Z,12.20
2023-04-19T00:52:56.307Z,12.10
2023-04-19T00:55:23.563Z,12.10
2023-04-19T00:57:52.301Z,12.10
2023-04-19T01:00:20.075Z,12.10
2023-04-19T01:02:48.012Z,12.10
2023-04-19T01:05:15.110Z,12.10
2023-04-19T01:07:42.652Z,12.10
2023-04-19T01:10:09.921Z,12.00
2023-04-19T01:12:36.623Z,12.00
2023-04-19T01:15:03.626Z,12.00
2023-04-19T01:17:32.384Z,12.00
2023-04-19T01:20:00.744Z,12.00
2023-04-19T01:22:28.323Z,11.90
2023-04-19T01:24:55.057Z,11.90
2023-04-19T01:27:21.925Z,11.90
2023-04-19T01:29:48.515Z,11.90
2023-04-19T01:32:15.301Z,11.90
2023-04-19T01:34:44.939Z,11.90
2023-04-19T01:37:11.548Z,11.90
2023-04-19T01:39:38.220Z,11.80
2023-04-19T01:42:04.992Z,11.80
2023-04-19T01:44:31.693Z,11.80
2023-04-19T01:46:58.355Z,11.80
2023-04-19T01:49:25.073Z,11.80
2023-04-19T01:51:51.776Z,11.80
2023-04-19T01:54:18.480Z,11.70
2023-04-19T01:56:45.138Z,11.70
2023-04-19T01:59:11.761Z,11.70
2023-04-19T02:01:38.421Z,11.70
2023-04-19T02:04:05.210Z,11.70
2023-04-19T02:06:31.988Z,11.70
2023-04-19T02:08:59.053Z,11.70
2023-04-19T02:11:25.721Z,11.60
2023-04-19T02:13:52.444Z,11.60
2023-04-19T02:16:19.124Z,11.60
2023-04-19T02:18:46.837Z,11.60
2023-04-19T02:21:13.772Z,11.60
2023-04-19T02:23:41.618Z,11.60
2023-04-19T02:26:08.229Z,11.60
2023-04-19T02:28:34.884Z,11.50
2023-04-19T02:31:05.190Z,11.50
2023-04-19T02:33:31.863Z,11.50
2023-04-19T02:35:58.480Z,11.50
2023-04-19T02:38:25.096Z,11.50
2023-04-19T02:40:51.797Z,11.50
2023-04-19T02:43:18.453Z,11.50
2023-04-19T02:45:45.087Z,11.40
2023-04-19T02:48:11.795Z,11.40
2023-04-19T02:50:41.159Z,11.40
2023-04-19T02:53:07.816Z,11.40
2023-04-19T02:55:34.462Z,11.40
2023-04-19T02:58:01.130Z,11.40
2023-04-19T03:00:27.743Z,11.30
2023-04-19T03:02:56.254Z,11.40
2023-04-19T03:05:23.654Z,11.30
2023-04-19T03:07:50.422Z,11.30
2023-04-19T03:10:17.325Z,11.30
2023-04-19T03:12:43.992Z,11.30
2023-04-19T03:15:11.278Z,11.30
2023-04-19T03:17:38.131Z,11.30
2023-04-19T03:20:11.850Z,11.20
2023-04-19T03:22:38.761Z,11.20
2023-04-19T03:25:05.892Z,11.20
2023-04-19T03:27:34.964Z,11.20
2023-04-19T03:30:01.666Z,11.20
2023-04-19T03:32:28.365Z,11.20
2023-04-19T03:34:54.971Z,11.10
2023-04-19T03:37:21.612Z,11.10
2023-04-19T03:39:48.152Z,11.10
2023-04-19T03:42:14.908Z,11.10
2023-04-19T03:44:41.496Z,11.10
2023-04-19T03:47:08.233Z,11.10
2023-04-19T03:49:34.877Z,11.10
2023-04-19T03:52:01.449Z,11.00
2023-04-19T03:54:28.090Z,11.00
2023-04-19T03:56:54.641Z,11.00
2023-04-19T03:59:21.300Z,11.00
2023-04-19T04:01:47.912Z,11.00
2023-04-19T04:04:14.934Z,11.00
2023-04-19T04:06:42.413Z,11.00
2023-04-19T04:09:09.205Z,11.00
2023-04-19T04:11:35.858Z,10.90
2023-04-19T04:14:02.442Z,10.90
2023-04-19T04:16:29.069Z,10.90
2023-04-19T04:18:55.873Z,10.90
2023-04-19T04:21:24.278Z,10.90
2023-04-19T04:23:51.582Z,10.90
2023-04-19T04:26:20.151Z,10.90
2023-04-19T04:28:47.178Z,10.90
2023-04-19T04:31:13.851Z,10.80
2023-04-19T04:33:41.744Z,10.80
2023-04-19T04:36:09.936Z,10.80
2023-04-19T04:38:36.982Z,10.80
2023-04-19T04:41:03.641Z,10.80
2023-04-19T04:43:30.287Z,10.80
2023-04-19T04:45:58.179Z,10.70
2023-04-19T04:48:25.455Z,10.70
2023-04-19T04:50:52.052Z,10.70
2023-04-19T04:53:18.749Z,10.70
2023-04-19T04:55:45.370Z,10.70
2023-04-19T04:58:12.012Z,10.70
2023-04-19T05:00:38.633Z,10.70
2023-04-19T05:03:05.490Z,10.70
2023-04-19T05:05:32.277Z,10.60
2023-04-19T05:07:59.260Z,10.60
2023-04-19T05:10:25.914Z,10.60
2023-04-19T05:12:52.628Z,10.60
2023-04-19T05:15:19.327Z,10.60
2023-04-19T05:17:46.082Z,10.60
2023-04-19T05:20:12.873Z,10.60
2023-04-19T05:22:39.583Z,10.60
2023-04-19T05:25:06.905Z,10.60
2023-04-19T05:27:33.553Z,10.60
2023-04-19T05:30:00.264Z,10.60
2023-04-19T05:32:27.566Z,10.60
2023-04-19T05:34:54.222Z,10.60
2023-04-19T05:37:20.782Z,10.60
2023-04-19T05:39:47.398Z,10.60
2023-04-19T05:42:13.982Z,10.60
2023-04-19T05:44:40.774Z,10.60
2023-04-19T05:47:07.427Z,10.60
2023-04-19T05:49:34.001Z,10.70
2023-04-19T05:52:00.678Z,10.70
2023-04-19T05:54:28.170Z,10.60
2023-04-19T05:56:54.731Z,10.60
2023-04-19T05:59:21.267Z,10.60
2023-04-19T06:01:47.932Z,10.60
2023-04-19T06:04:14.997Z,10.70
2023-04-19T06:06:42.034Z,10.70
2023-04-19T06:09:08.694Z,10.70
2023-04-19T06:11:47.110Z,10.70
2023-04-19T06:14:17.426Z,10.70
2023-04-19T06:16:44.528Z,10.70
2023-04-19T06:19:11.235Z,10.70
2023-04-19T06:21:37.931Z,10.70
2023-04-19T06:24:07.141Z,10.70
2023-04-19T06:26:33.886Z,10.70
2023-04-19T06:29:01.235Z,10.70
2023-04-19T06:31:27.975Z,10.70
2023-04-19T06:33:54.653Z,10.70
2023-04-19T06:36:21.231Z,10.80
2023-04-19T06:38:48.039Z,10.80
2023-04-19T06:41:14.817Z,10.80
2023-04-19T06:43:42.876Z,10.80
2023-04-19T06:46:10.033Z,10.80
2023-04-19T06:48:36.857Z,10.80
2023-04-19T06:51:03.596Z,10.80
2023-04-19T06:53:30.326Z,10.80
2023-04-19T06:56:01.778Z,10.80
2023-04-19T06:58:29.169Z,10.90
2023-04-19T07:00:56.272Z,10.90
2023-04-19T07:03:23.082Z,10.90
2023-04-19T07:05:49.905Z,10.90
2023-04-19T07:08:16.488Z,10.90
2023-04-19T07:10:43.963Z,11.00
2023-04-19T07:13:13.661Z,11.00
2023-04-19T07:15:40.325Z,11.00
2023-04-19T07:18:07.370Z,11.10
2023-04-19T07:20:34.311Z,11.10
2023-04-19T07:23:01.079Z,11.20
2023-04-19T07:25:27.902Z,11.30
2023-04-19T07:27:55.659Z,11.40
2023-04-19T07:30:22.481Z,11.40
2023-04-19T07:32:51.622Z,11.50
2023-04-19T07:35:19.513Z,11.60
2023-04-19T07:37:46.475Z,11.70
2023-04-19T07:40:13.455Z,11.80
2023-04-19T07:42:40.269Z,11.90
2023-04-19T07:45:07.481Z,12.00
2023-04-19T07:47:34.194Z,12.10
2023-04-19T07:50:00.862Z,12.20
2023-04-19T07:52:27.499Z,12.20
2023-04-19T07:54:54.188Z,12.10
2023-04-19T07:57:20.769Z,12.10
2023-04-19T07:59:47.355Z,12.10
2023-04-19T08:02:14.112Z,12.10
2023-04-19T08:04:41.323Z,12.20
2023-04-19T08:07:09.513Z,12.20
2023-04-19T08:09:37.977Z,12.40
2023-04-19T08:12:04.738Z,12.50
2023-04-19T08:14:40.363Z,12.60
2023-04-19T08:17:25.616Z,12.70
2023-04-19T08:19:53.800Z,12.90
2023-04-19T08:22:21.630Z,13.00
2023-04-19T08:24:52.053Z,13.20
2023-04-19T08:27:19.262Z,13.20
2023-04-19T08:29:46.534Z,13.30
2023-04-19T08:32:13.581Z,13.60
2023-04-19T08:34:40.694Z,13.80
2023-04-19T08:37:07.379Z,13.80
2023-04-19T08:39:34.996Z,13.80
2023-04-19T08:42:17.708Z,14.00
2023-04-19T08:45:09.531Z,14.10
2023-04-19T08:50:24.219Z,14.40
2023-04-19T08:53:05.200Z,14.50
2023-04-19T08:55:39.835Z,14.60
2023-04-19T08:58:12.309Z,14.70
2023-04-19T09:00:45.718Z,14.90
2023-04-19T09:03:12.631Z,15.00
2023-04-19T09:05:39.464Z,15.10
2023-04-19T09:08:33.539Z,15.10
2023-04-19T09:11:02.072Z,15.20
2023-04-19T09:13:29.997Z,15.30
2023-04-19T09:16:04.890Z,15.50
2023-04-19T09:18:33.204Z,15.50
2023-04-19T09:21:02.510Z,15.70
2023-04-19T09:23:29.173Z,15.70
2023-04-19T09:26:22.811Z,15.80
2023-04-19T09:28:58.189Z,16.10
2023-04-19T09:31:43.440Z,16.20
2023-04-19T09:34:14.862Z,16.30
2023-04-19T09:36:41.848Z,16.40
2023-04-19T09:39:08.734Z,16.40
2023-04-19T09:41:38.975Z,16.70
2023-04-19T09:46:46.513Z,16.80
2023-04-19T09:49:27.979Z,16.90
2023-04-19T09:52:05.493Z,17.00
2023-04-19T09:54:32.862Z,17.20
2023-04-19T09:57:01.673Z,17.30
2023-04-19T09:59:28.558Z,17.40
2023-04-19T10:01:58.494Z,17.60
2023-04-19T10:04:43.635Z,17.60
2023-04-19T10:09:52.993Z,17.90
2023-04-19T10:14:58.550Z,18.20
2023-04-19T10:17:26.021Z,18.10
2023-04-19T10:20:06.919Z,18.30
2023-04-19T10:22:37.853Z,18.40
2023-04-19T10:25:15.814Z,18.40
2023-04-19T10:27:49.244Z,18.50
2023-04-19T10:30:23.375Z,18.70
2023-04-19T10:32:54.196Z,18.70
2023-04-19T10:35:23.074Z,18.90
2023-04-19T10:38:08.722Z,18.80
2023-04-19T10:40:56.540Z,19.10
2023-04-19T10:43:24.834Z,19.00
2023-04-19T10:45:51.972Z,19.10
2023-04-19T10:48:33.065Z,19.20
2023-04-19T10:51:00.725Z,19.20
2023-04-19T10:53:45.563Z,19.50
2023-04-19T10:56:12.540Z,19.50
2023-04-19T10:59:13.340Z,19.50
2023-04-19T11:01:47.089Z,19.70
2023-04-19T11:04:41.407Z,19.70
2023-04-19T11:07:08.161Z,19.80
2023-04-19T11:09:39.555Z,19.90
2023-04-19T11:12:12.235Z,19.90
2023-04-19T11:14:46.839Z,19.90
2023-04-19T11:17:28.353Z,20.00
2023-04-19T11:20:01.034Z,20.00
2023-04-19T11:22:38.205Z,20.10
2023-04-19T11:25:25.175Z,20.20
2023-04-19T11:27:55.762Z,20.30
2023-04-19T11:30:29.182Z,20.30
2023-04-19T11:32:57.374Z,20.40
2023-04-19T11:35:26.335Z,20.30
2023-04-19T11:37:54.780Z,20.50
2023-04-19T11:40:22.566Z,20.60
2023-04-19T11:43:03.120Z,20.60
2023-04-19T11:45:36.609Z,20.70
2023-04-19T11:48:06.248Z,20.70
2023-04-19T11:50:44.495Z,20.70
2023-04-19T11:53:17.038Z,20.80
2023-04-19T11:55:45.738Z,20.80
2023-04-19T11:58:25.693Z,21.10
2023-04-19T12:00:52.443Z,21.20
2023-04-19T12:03:27.140Z,21.10
2023-04-19T12:05:59.653Z,21.10
2023-04-19T12:08:33.369Z,21.10
2023-04-19T12:11:00.597Z,21.20
2023-04-19T12:13:27.232Z,21.40
2023-04-19T12:15:53.922Z,21.50
2023-04-19T12:18:20.568Z,21.70
2023-04-19T12:20:49.166Z,21.60
2023-04-19T12:23:17.456Z,21.70
2023-04-19T12:25:46.606Z,21.90
2023-04-19T12:28:13.918Z,22.00
2023-04-19T12:30:41.529Z,22.10
2023-04-19T12:33:08.963Z,22.00
2023-04-19T12:35:36.336Z,22.30
2023-04-19T12:38:03.528Z,22.30
2023-04-19T12:40:30.731Z,22.40
2023-04-19T12:42:57.754Z,22.50
2023-04-19T12:45:24.471Z,22.30
2023-04-19T12:47:51.206Z,22.20
2023-04-19T12:50:17.895Z,22.30
2023-04-19T12:52:45.562Z,22.70
2023-04-19T12:55:12.452Z,22.70
2023-04-19T12:57:39.347Z,22.70
2023-04-19T13:00:07.351Z,22.90
2023-04-19T13:02:35.325Z,22.90
2023-04-19T13:05:02.487Z,23.10
2023-04-19T13:07:29.189Z,23.10
2023-04-19T13:09:56.965Z,23.20
2023-04-19T13:12:24.133Z,23.40
2023-04-19T13:14:52.535Z,23.30
2023-04-19T13:17:20.245Z,23.30
2023-04-19T13:19:47.544Z,23.30
2023-04-19T13:22:14.657Z,23.50
2023-04-19T13:24:41.300Z,23.30
2023-04-19T13:27:09.123Z,23.60
2023-04-19T13:29:36.174Z,23.70
2023-04-19T13:32:03.273Z,23.70
2023-04-19T13:34:30.040Z,23.40
2023-04-19T13:36:57.665Z,23.60
2023-04-19T13:39:24.343Z,23.70
2023-04-19T13:41:51.367Z,23.80
2023-04-19T13:44:18.366Z,23.80
2023-04-19T13:46:45.183Z,23.90
2023-04-19T13:49:11.899Z,23.90
2023-04-19T13:51:48.968Z,23.90
2023-04-19T13:54:21.256Z,23.90
2023-04-19T13:56:50.549Z,23.90
2023-04-19T13:59:18.878Z,24.00
2023-04-19T14:01:45.944Z,24.00
2023-04-19T14:04:12.985Z,24.00
2023-04-19T14:06:39.732Z,23.60
2023-04-19T14:09:06.835Z,23.50
2023-04-19T14:11:33.956Z,23.80
2023-04-19T14:14:00.724Z,23.90
2023-04-19T14:16:27.482Z,23.90
2023-04-19T14:18:54.173Z,23.80
2023-04-19T14:21:20.942Z,23.90
2023-04-19T14:23:47.601Z,23.90
2023-04-19T14:26:14.750Z,23.90
2023-04-19T14:28:41.455Z,23.80
2023-04-19T14:31:08.196Z,23.80
2023-04-19T14:33:34.862Z,23.80
2023-04-19T14:36:01.632Z,23.80
2023-04-19T14:38:28.239Z,23.80
2023-04-19T14:40:54.881Z,23.80
2023-04-19T14:43:21.479Z,23.80
2023-04-19T14:45:51.915Z,23.80
2023-04-19T14:48:21.410Z,23.80
2023-04-19T14:50:48.821Z,23.80
2023-04-19T14:53:15.769Z,23.70
2023-04-19T14:55:42.387Z,23.70
2023-04-19T14:58:09.052Z,23.70
2023-04-19T15:00:35.805Z,23.60
2023-04-19T15:03:02.580Z,23.60
2023-04-19T15:05:29.444Z,23.60
2023-04-19T15:07:56.083Z,23.50
2023-04-19T15:10:22.762Z,23.50
2023-04-19T15:12:49.330Z,23.50
2023-04-19T15:15:16.200Z,23.40
2023-04-19T15:17:43.276Z,23.40
2023-04-19T15:20:10.323Z,23.40
2023-04-19T15:22:37.012Z,23.30
2023-04-19T15:25:04.126Z,23.30
2023-04-19T15:27:31.389Z,23.30
2023-04-19T15:29:58.086Z,23.20
2023-04-19T15:32:24.787Z,23.20
2023-04-19T15:34:51.703Z,23.20
2023-04-19T15:37:18.513Z,23.10
2023-04-19T15:39:45.267Z,23.10
2023-04-19T15:42:12.055Z,23.00
2023-04-19T15:44:38.674Z,23.00
2023-04-19T15:47:05.502Z,22.90
2023-04-19T15:49:32.065Z,22.90
2023-04-19T15:51:58.652Z,22.90
2023-04-19T15:54:25.650Z,22.80
2023-04-19T15:56:52.228Z,22.70
2023-04-19T15:59:19.014Z,22.70
2023-04-19T16:01:45.679Z,22.60
2023-04-19T16:04:12.607Z,22.60
2023-04-19T16:06:39.458Z,22.50
2023-04-19T16:09:07.686Z,22.50
2023-04-19T16:11:34.245Z,22.50
2023-04-19T16:14:01.240Z,22.50
2023-04-19T16:16:31.105Z,22.40
2023-04-19T16:18:57.901Z,22.30
2023-04-19T16:21:26.231Z,22.20
2023-04-19T16:23:52.796Z,22.00
2023-04-19T16:26:19.403Z,22.10
2023-04-19T16:28:46.840Z,22.10
2023-04-19T16:31:13.429Z,22.10
2023-04-19T16:33:40.091Z,22.10
2023-04-19T16:36:06.703Z,22.00
2023-04-19T16:38:33.359Z,21.90
2023-04-19T16:41:02.189Z,21.90
2023-04-19T16:43:28.816Z,21.90
2023-04-19T16:45:55.403Z,21.80
2023-04-19T16:48:22.159Z,21.70
2023-04-19T16:50:49.421Z,21.70
2023-04-19T16:53:16.411Z,21.60
2023-04-19T16:55:43.097Z,21.50
2023-04-19T16:58:09.708Z,21.40
2023-04-19T17:00:36.301Z,21.40
2023-04-19T17:03:03.129Z,21.30
2023-04-19T17:05:29.880Z,21.20
2023-04-19T17:07:57.070Z,21.20
2023-04-19T17:10:24.634Z,21.10
2023-04-19T17:12:51.269Z,21.00
2023-04-19T17:15:18.985Z,20.90
2023-04-19T17:17:45.712Z,20.90
2023-04-19T17:20:13.473Z,20.80
2023-04-19T17:22:40.112Z,20.80
2023-04-19T17:25:06.933Z,20.70
2023-04-19T17:27:33.550Z,20.70
2023-04-19T17:30:00.219Z,20.60
2023-04-19T17:32:26.849Z,20.50
2023-04-19T17:34:53.516Z,20.40
2023-04-19T17:37:20.999Z,20.30
2023-04-19T17:39:47.535Z,20.30
2023-04-19T17:42:14.154Z,20.20
2023-04-19T17:44:40.919Z,20.10
2023-04-19T17:47:07.538Z,20.10
2023-04-19T17:49:34.252Z,20.00
2023-04-19T17:52:00.810Z,19.90
2023-04-19T17:54:27.448Z,19.90
2023-04-19T17:56:54.571Z,19.90
2023-04-19T17:59:21.273Z,19.80
2023-04-19T18:01:48.066Z,19.70
2023-04-19T18:04:17.952Z,19.70
2023-04-19T18:06:45.123Z,19.60
2023-04-19T18:09:13.210Z,19.50
2023-04-19T18:11:40.346Z,19.50
2023-04-19T18:14:07.038Z,19.40
2023-04-19T18:16:33.736Z,19.40
2023-04-19T18:19:00.389Z,19.30
2023-04-19T18:21:27.317Z,19.20
2023-04-19T18:23:54.843Z,19.10
2023-04-19T18:26:24.300Z,19.10
2023-04-19T18:28:50.915Z,19.00
2023-04-19T18:31:17.591Z,18.90
2023-04-19T18:33:44.219Z,18.90
2023-04-19T18:36:11.207Z,18.80
2023-04-19T18:38:37.887Z,18.80
2023-04-19T18:41:04.515Z,18.70
2023-04-19T18:43:31.651Z,18.70
2023-04-19T18:45:59.217Z,18.60
2023-04-19T18:48:28.181Z,18.50
2023-04-19T18:50:55.281Z,18.50
2023-04-19T18:53:22.031Z,18.40
2023-04-19T18:55:48.807Z,18.40
2023-04-19T18:58:15.503Z,18.30
2023-04-19T19:00:42.262Z,18.20
2023-04-19T19:03:25.214Z,18.20
2023-04-19T19:05:56.466Z,18.10
2023-04-19T19:08:23.391Z,18.00
2023-04-19T19:11:16.363Z,18.00
2023-04-19T19:13:36.716Z,17.90
2023-04-19T19:16:05.657Z,17.90
2023-04-19T19:18:32.617Z,17.80
2023-04-19T19:21:03.231Z,17.70
2023-04-19T19:23:35.730Z,17.70
2023-04-19T19:26:04.011Z,17.60
2023-04-19T19:28:30.638Z,17.60
2023-04-19T19:30:57.283Z,17.50
2023-04-19T19:33:24.037Z,17.50
2023-04-19T19:35:50.776Z,17.40
2023-04-19T19:38:17.365Z,17.40
2023-04-19T19:41:20.699Z,17.30
2023-04-19T19:43:30.650Z,17.30
2023-04-19T19:45:57.286Z,17.20
2023-04-19T19:48:25.357Z,17.10
2023-04-19T19:53:21.742Z,17.00
2023-04-19T19:55:48.355Z,17.00
2023-04-19T19:58:42.965Z,16.90
2023-04-19T20:01:03.374Z,16.90
2023-04-19T20:03:37.465Z,16.80
2023-04-19T20:08:40.126Z,16.80
2023-04-19T20:11:09.464Z,16.70
2023-04-19T20:13:36.694Z,16.70
2023-04-19T20:16:03.524Z,16.60
2023-04-19T20:18:30.413Z,16.60
2023-04-19T20:20:57.912Z,16.50
2023-04-19T20:23:24.836Z,16.50
2023-04-19T20:25:52.057Z,16.40
2023-04-19T20:28:18.827Z,16.40
2023-04-19T20:30:45.687Z,16.40
2023-04-19T20:33:12.387Z,16.30
2023-04-19T20:35:39.126Z,16.30
2023-04-19T20:38:07.774Z,16.20
2023-04-19T20:40:34.458Z,16.20
2023-04-19T20:43:01.152Z,16.20
2023-04-19T20:45:27.883Z,16.10
2023-04-19T20:47:55.729Z,16.10
2023-04-19T20:50:22.539Z,16.00
2023-04-19T20:52:49.469Z,16.00
2023-04-19T20:55:16.529Z,16.00
2023-04-19T20:57:43.255Z,15.90
2023-04-19T21:00:10.609Z,15.90
2023-04-19T21:02:38.040Z,15.80
2023-04-19T21:05:05.052Z,15.80
2023-04-19T21:07:31.674Z,15.80
2023-04-19T21:09:58.254Z,15.70
2023-04-19T21:12:24.859Z,15.70
2023-04-19T21:14:52.856Z,15.60
2023-04-19T21:17:20.413Z,15.60
2023-04-19T21:19:47.121Z,15.60
2023-04-19T21:22:13.689Z,15.50
2023-04-19T21:24:40.319Z,15.50
2023-04-19T21:27:06.989Z,15.40
2023-04-19T21:29:33.813Z,15.40
2023-04-19T21:32:00.472Z,15.40
2023-04-19T21:34:27.274Z,15.30
2023-04-19T21:36:53.961Z,15.30
2023-04-19T21:39:20.704Z,15.30
2023-04-19T21:41:47.410Z,15.20
2023-04-19T21:44:14.083Z,15.20
2023-04-19T21:46:40.961Z,15.20
2023-04-19T21:49:07.588Z,15.20
2023-04-19T21:51:34.226Z,15.10
2023-04-19T21:54:00.822Z,15.10
2023-04-19T21:56:27.590Z,15.00
2023-04-19T21:58:54.265Z,15.00
2023-04-19T22:01:21.052Z,15.00
2023-04-19T22:03:48.076Z,14.90
2023-04-19T22:06:17.198Z,14.90
2023-04-19T22:08:44.057Z,14.90
2023-04-19T22:11:12.073Z,14.90
2023-04-19T22:13:38.798Z,14.80
2023-04-19T22:16:05.944Z,14.80
2023-04-19T22:18:34.658Z,14.80
2023-04-19T22:21:01.501Z,14.70
2023-04-19T22:23:28.068Z,14.70
2023-04-19T22:25:54.829Z,14.70
2023-04-19T22:28:21.552Z,14.60
2023-04-19T22:30:48.350Z,14.60
2023-04-19T22:33:14.977Z,14.60
2023-04-19T22:35:41.667Z,14.50
2023-04-19T22:38:08.288Z,14.50
2023-04-19T22:40:34.899Z,14.50
2023-04-19T22:43:01.745Z,14.50
2023-04-19T22:45:28.458Z,14.40
2023-04-19T22:47:55.148Z,14.40
2023-04-19T22:50:23.630Z,14.40
2023-04-19T22:52:50.870Z,14.30
2023-04-19T22:55:17.634Z,14.30
2023-04-19T22:57:44.343Z,14.30
2023-04-19T23:00:11.527Z,14.20
2023-04-19T23:02:39.093Z,14.20
2023-04-19T23:05:06.492Z,14.20
2023-04-19T23:07:33.315Z,14.20
2023-04-19T23:10:01.029Z,14.10
2023-04-19T23:12:27.718Z,14.10
2023-04-19T23:14:55.269Z,14.10
2023-04-19T23:17:21.891Z,14.10
2023-04-19T23:19:48.511Z,14.00
2023-04-19T23:22:15.230Z,14.00
2023-04-19T23:24:41.813Z,13.90
2023-04-19T23:27:08.533Z,13.90
2023-04-19T23:29:35.228Z,13.90
2023-04-19T23:32:02.114Z,13.90
2023-04-19T23:34:28.725Z,13.80
2023-04-19T23:36:56.799Z,13.80
2023-04-19T23:39:23.464Z,13.80
2023-04-19T23:41:50.384Z,13.70
2023-04-19T23:44:17.078Z,13.70
2023-04-19T23:46:43.883Z,13.70
2023-04-19T23:49:10.625Z,13.70
2023-04-19T23:51:37.463Z,13.60
2023-04-19T23:54:04.289Z,13.60
2023-04-19T23:56:31.189Z,13.60
2023-04-19T23:58:57.846Z,13.60
